Time;durP1;ratioP1;P1;durP2;ratioP2;P2;SDS_P1;SDS_P2;PMS_P1;PMS_P2;Temp;Humidity;BMP_temperature;BMP_pressure;BME280_temperature;BME280_humidity;BME280_pressure;Samples;Min_cycle;Max_cycle;Signal;HPM_P1;HPM_P2
2024/03/14 00:00:38;;;;;;;32.60;12.17;;;;;;;9.60;100.00;100785.16;5044717;28;20388;-71
2024/03/14 00:03:03;;;;;;;;;;;;;;;9.55;100.00;100771.47;5048620;28;20037;-71
2024/03/14 00:05:29;;;;;;;30.73;13.65;;;;;;;9.55;100.00;100779.47;5048234;28;19913;-73
2024/03/14 00:07:57;;;;;;;26.23;13.43;;;;;;;9.46;100.00;100779.41;5047558;28;20033;-73
2024/03/14 00:10:24;;;;;;;28.25;13.88;;;;;;;9.49;100.00;100795.09;5042196;28;20354;-72
2024/03/14 00:12:51;;;;;;;29.52;14.30;;;;;;;9.41;100.00;100803.03;5046399;28;20112;-71
2024/03/14 00:15:17;;;;;;;27.10;13.65;;;;;;;9.52;100.00;100821.41;5030023;28;20109;-71
2024/03/14 00:17:44;;;;;;;25.70;14.15;;;;;;;9.52;100.00;100821.41;5045009;28;20124;-72
2024/03/14 00:20:12;;;;;;;27.58;14.55;;;;;;;9.62;100.00;100824.03;5043124;28;20037;-71
2024/03/14 00:22:41;;;;;;;27.08;14.80;;;;;;;9.45;100.00;100804.38;5044007;28;20544;-71
2024/03/14 00:25:10;;;;;;;28.23;15.63;;;;;;;9.62;100.00;100817.84;5045741;28;20029;-72
2024/03/14 00:27:37;;;;;;;28.67;14.38;;;;;;;9.53;100.00;100808.97;5043559;28;20067;-71
2024/03/14 00:30:08;;;;;;;25.92;13.93;;;;;;;9.54;100.00;100805.28;5045771;28;20395;-72
2024/03/14 00:32:34;;;;;;;28.65;15.15;;;;;;;9.49;100.00;100815.56;5045957;28;20449;-71
2024/03/14 00:35:02;;;;;;;25.95;14.70;;;;;;;9.42;100.00;100811.84;5038961;28;20016;-72
2024/03/14 00:37:31;;;;;;;30.05;14.93;;;;;;;9.38;100.00;100810.47;5046929;28;20025;-71
2024/03/14 00:39:56;;;;;;;34.13;15.93;;;;;;;9.39;100.00;100805.00;5026892;28;20060;-72
2024/03/14 00:42:26;;;;;;;33.63;15.93;;;;;;;9.38;100.00;100813.16;5040420;28;20017;-71
2024/03/14 00:44:52;;;;;;;32.05;17.15;;;;;;;9.30;100.00;100804.09;5040555;28;20037;-71
2024/03/14 00:47:18;;;;;;;33.15;16.48;;;;;;;9.26;100.00;100799.22;5045662;28;20020;-71
2024/03/14 00:49:44;;;;;;;34.10;19.63;;;;;;;9.39;100.00;100822.81;5046678;28;20858;-72
2024/03/14 00:52:09;;;;;;;28.48;15.55;;;;;;;9.36;100.00;100809.78;5042838;28;20543;-71
2024/03/14 00:54:35;;;;;;;35.57;18.07;;;;;;;9.32;100.00;100805.75;5034103;28;20116;-72
2024/03/14 00:57:02;;;;;;;35.83;16.65;;;;;;;9.38;100.00;100805.97;5046322;28;20024;-72
2024/03/14 00:59:29;;;;;;;32.88;15.85;;;;;;;9.28;100.00;100795.41;5033853;28;20041;-71
2024/03/14 01:01:54;;;;;;;34.13;16.27;;;;;;;9.33;100.00;100802.13;5035802;28;20090;-73
2024/03/14 01:04:20;;;;;;;34.13;17.77;;;;;;;9.23;100.00;100803.03;5038471;28;20028;-71
2024/03/14 01:06:47;;;;;;;33.05;17.25;;;;;;;9.16;100.00;100801.97;5045588;28;20558;-71
2024/03/14 01:09:13;;;;;;;38.67;17.98;;;;;;;9.19;100.00;100811.47;5038274;28;20035;-70
2024/03/14 01:11:39;;;;;;;37.95;19.15;;;;;;;9.26;100.00;100817.88;5038551;28;20169;-71
2024/03/14 01:14:06;;;;;;;41.85;17.90;;;;;;;9.23;100.00;100813.69;5045290;28;20029;-72
2024/03/14 01:16:31;;;;;;;;;;;;;;;9.39;100.00;100806.81;5038637;28;20017;-71
2024/03/14 01:18:57;;;;;;;40.90;18.27;;;;;;;9.25;100.00;100794.91;5032007;28;19917;-72
2024/03/14 01:21:22;;;;;;;39.60;18.17;;;;;;;9.32;100.00;100790.63;5014866;28;20569;-71
2024/03/14 01:23:48;;;;;;;38.70;21.20;;;;;;;9.36;100.00;100801.78;5016650;28;20826;-72
2024/03/14 01:26:13;;;;;;;35.37;17.87;;;;;;;9.32;100.00;100789.75;5014494;28;20048;-72
2024/03/14 01:28:38;;;;;;;38.08;18.73;;;;;;;9.36;100.00;100780.47;5032619;28;20032;-73
2024/03/14 01:31:05;;;;;;;36.20;18.13;;;;;;;9.35;100.00;100784.97;5044977;28;20436;-73
2024/03/14 01:33:31;;;;;;;40.28;18.77;;;;;;;9.44;100.00;100789.38;5042349;28;20048;-71
2024/03/14 01:35:59;;;;;;;34.85;18.00;;;;;;;9.35;100.00;100782.31;5046119;28;20083;-71
2024/03/14 01:38:25;;;;;;;39.88;19.33;;;;;;;9.42;100.00;100786.03;5045827;28;20082;-71
2024/03/14 01:40:50;;;;;;;36.00;19.23;;;;;;;9.25;100.00;100776.25;5045964;28;20126;-72
2024/03/14 01:43:16;;;;;;;37.23;18.90;;;;;;;9.23;100.00;100776.38;5029911;28;20041;-72
2024/03/14 01:45:46;;;;;;;43.17;21.20;;;;;;;9.27;100.00;100791.09;5036144;28;20029;-73
2024/03/14 01:48:12;;;;;;;40.92;21.08;;;;;;;9.35;100.00;100786.81;5028455;28;20306;-73
2024/03/14 01:50:39;;;;;;;39.60;19.50;;;;;;;9.30;100.00;100779.28;5029452;28;20039;-71
2024/03/14 01:53:04;;;;;;;42.58;20.48;;;;;;;9.22;100.00;100788.00;5023549;28;20044;-73
2024/03/14 01:55:30;;;;;;;42.58;19.80;;;;;;;9.35;100.00;100787.66;5012148;28;20112;-71
2024/03/14 01:57:57;;;;;;;42.13;20.25;;;;;;;9.18;100.00;100778.69;5042669;28;20408;-72
2024/03/14 02:00:33;;;;;;;43.42;19.33;;;;;;;9.24;100.00;100783.38;5037729;28;20364;-71
2024/03/14 02:03:00;;;;;;;29.55;16.02;;;;;;;9.33;100.00;100781.63;5044321;28;20419;-72
2024/03/14 02:05:44;;;;;;;42.70;19.02;;;;;;;9.23;100.00;100781.72;5034869;28;20033;-71
2024/03/14 02:08:10;;;;;;;41.25;20.83;;;;;;;9.28;100.00;100773.25;5027154;28;20036;-72
2024/03/14 02:10:36;;;;;;;45.38;21.10;;;;;;;9.28;100.00;100767.94;5037692;28;20108;-71
2024/03/14 02:13:01;;;;;;;;;;;;;;;9.30;100.00;100774.78;5044451;28;20048;-71
2024/03/14 02:15:27;;;;;;;44.72;23.17;;;;;;;9.42;100.00;100764.72;5045709;28;19920;-72
2024/03/14 02:17:52;;;;;;;44.17;20.00;;;;;;;9.29;100.00;100754.47;5045318;28;20037;-73
2024/03/14 02:20:17;;;;;;;44.13;20.90;;;;;;;9.41;100.00;100759.53;5045381;28;20024;-71
2024/03/14 02:22:44;;;;;;;46.03;19.97;;;;;;;9.24;100.00;100751.41;5043077;28;20033;-71
2024/03/14 02:25:10;;;;;;;49.15;21.85;;;;;;;9.24;100.00;100762.06;5045572;28;20271;-72
2024/03/14 02:27:35;;;;;;;50.75;21.70;;;;;;;9.32;100.00;100771.13;5045638;28;20056;-72
2024/03/14 02:30:02;;;;;;;45.50;21.83;;;;;;;9.43;100.00;100768.22;5045278;28;20510;-72
2024/03/14 02:32:28;;;;;;;43.65;20.20;;;;;;;9.47;100.00;100764.25;5044411;28;20120;-72
2024/03/14 02:34:53;;;;;;;51.15;23.73;;;;;;;9.39;100.00;100766.84;5032085;28;20214;-73
2024/03/14 02:37:19;;;;;;;51.83;21.23;;;;;;;9.46;100.00;100758.09;5026210;28;20090;-72
2024/03/14 02:39:45;;;;;;;48.30;21.57;;;;;;;9.41;100.00;100746.22;5042688;28;20671;-72
2024/03/14 02:42:11;;;;;;;53.28;22.67;;;;;;;9.38;100.00;100747.34;5041276;28;20044;-73
2024/03/14 02:44:37;;;;;;;;;;;;;;;9.47;100.00;100748.25;5048550;28;20074;-71
2024/03/14 02:47:03;;;;;;;49.15;22.23;;;;;;;9.50;100.00;100750.63;5046911;28;20391;-72
2024/03/14 02:49:29;;;;;;;49.38;22.17;;;;;;;9.48;100.00;100737.47;5031771;28;20124;-74
2024/03/14 02:51:55;;;;;;;50.38;22.70;;;;;;;9.47;100.00;100750.94;5025928;28;20183;-72
2024/03/14 02:54:20;;;;;;;46.53;23.08;;;;;;;9.55;100.00;100744.81;5032160;28;20037;-72
2024/03/14 02:56:48;;;;;;;46.10;22.67;;;;;;;9.52;100.00;100737.97;5037940;28;20112;-72
2024/03/14 02:59:14;;;;;;;43.97;21.05;;;;;;;9.60;100.00;100730.03;5040059;28;20385;-73
2024/03/14 03:01:40;;;;;;;47.07;22.40;;;;;;;9.65;100.00;100733.06;5049306;28;20395;-71
2024/03/14 03:04:05;;;;;;;45.95;21.38;;;;;;;9.53;100.00;100734.34;5048389;28;20029;-71
2024/03/14 03:06:33;;;;;;;48.93;21.83;;;;;;;9.60;100.00;100734.53;5049073;28;20021;-73
2024/03/14 03:08:59;;;;;;;53.17;23.42;;;;;;;9.41;100.00;100722.22;5042887;28;20034;-71
2024/03/14 03:11:25;;;;;;;56.88;24.85;;;;;;;9.57;100.00;100738.34;5047640;28;20037;-72
2024/03/14 03:13:50;;;;;;;58.75;23.98;;;;;;;9.52;100.00;100719.31;5048613;28;20627;-71
2024/03/14 03:16:16;;;;;;;50.37;22.13;;;;;;;9.44;100.00;100719.28;5048950;28;20049;-71
2024/03/14 03:18:41;;;;;;;49.67;22.13;;;;;;;9.58;100.00;100725.88;5044536;28;20873;-71
2024/03/14 03:21:06;;;;;;;51.00;23.58;;;;;;;9.54;100.00;100722.66;5016927;28;20079;-71
2024/03/14 03:23:32;;;;;;;47.33;23.30;;;;;;;9.54;100.00;100720.00;5033703;28;20033;-71
2024/03/14 03:25:57;;;;;;;48.43;22.97;;;;;;;9.58;100.00;100721.38;5018350;28;20026;-72
2024/03/14 03:28:23;;;;;;;56.42;25.08;;;;;;;9.56;100.00;100717.19;5019152;28;20430;-71
2024/03/14 03:30:48;;;;;;;57.00;25.40;;;;;;;9.64;100.00;100711.91;5015383;28;20069;-71
2024/03/14 03:33:20;;;;;;;49.55;21.65;;;;;;;9.52;100.00;100711.31;5031038;28;20099;-73
2024/03/14 03:35:48;;;;;;;49.28;23.58;;;;;;;9.59;100.00;100712.38;5028583;28;20068;-71
2024/03/14 03:38:13;;;;;;;50.20;23.20;;;;;;;9.62;100.00;100716.53;5028041;28;20025;-75
2024/03/14 03:40:43;;;;;;;50.57;23.43;;;;;;;9.60;100.00;100713.19;5026096;28;20120;-74
2024/03/14 03:43:09;;;;;;;56.40;25.95;;;;;;;9.63;100.00;100719.06;5030630;28;20029;-73
2024/03/14 03:45:35;;;;;;;;;;;;;;;9.65;100.00;100716.25;5028781;28;20507;-71
2024/03/14 03:48:00;;;;;;;49.88;21.10;;;;;;;9.56;100.00;100717.19;5030037;28;19921;-72
2024/03/14 03:50:27;;;;;;;52.47;24.03;;;;;;;9.64;100.00;100712.72;5029426;28;20489;-73
2024/03/14 03:52:53;;;;;;;54.47;23.48;;;;;;;9.62;100.00;100712.06;5030518;28;20276;-71
2024/03/14 03:55:18;;;;;;;52.10;24.45;;;;;;;9.56;100.00;100706.53;5027136;28;20503;-74
2024/03/14 03:57:45;;;;;;;45.38;23.10;;;;;;;9.57;100.00;100709.00;5049158;28;20045;-73
2024/03/14 04:02:55;;;;;;;51.78;24.67;;;;;;;9.73;100.00;100703.78;5030264;28;20418;-71
2024/03/14 04:05:21;;;;;;;56.50;24.05;;;;;;;9.84;100.00;100699.19;5023682;28;20079;-72
2024/03/14 04:07:49;;;;;;;45.03;21.90;;;;;;;9.82;100.00;100690.50;5029149;28;20022;-71
2024/03/14 04:10:15;;;;;;;47.80;24.08;;;;;;;9.77;100.00;100684.81;5026458;28;20033;-72
2024/03/14 04:12:41;;;;;;;;;;;;;;;9.78;100.00;100676.66;5017664;28;20045;-71
2024/03/14 04:15:06;;;;;;;49.05;24.08;;;;;;;9.80;100.00;100679.16;5024102;28;19913;-72
2024/03/14 04:17:33;;;;;;;46.53;24.10;;;;;;;9.91;100.00;100673.56;5024675;28;20022;-71
2024/03/14 04:19:59;;;;;;;;;;;;;;;9.86;100.00;100667.88;5031076;28;20034;-71
2024/03/14 04:22:25;;;;;;;47.55;22.48;;;;;;;9.69;100.00;100654.47;5029861;28;19913;-72
2024/03/14 04:24:51;;;;;;;50.55;23.38;;;;;;;9.73;100.00;100666.47;5030351;28;20083;-72
2024/03/14 04:27:18;;;;;;;45.03;21.77;;;;;;;9.84;100.00;100662.69;5028429;28;20040;-71
2024/03/14 04:29:45;;;;;;;42.50;21.25;;;;;;;9.76;100.00;100654.63;5027960;28;20069;-73
2024/03/14 04:32:13;;;;;;;46.17;23.85;;;;;;;9.83;100.00;100654.84;5031370;28;20067;-72
2024/03/14 04:34:39;;;;;;;44.53;24.08;;;;;;;9.92;100.00;100654.72;5032683;28;20037;-71
2024/03/14 04:37:06;;;;;;;48.60;23.77;;;;;;;9.92;100.00;100648.53;5029122;28;20037;-71
2024/03/14 04:39:33;;;;;;;43.25;21.25;;;;;;;9.85;100.00;100640.34;5027787;28;20638;-71
2024/03/14 04:41:59;;;;;;;45.45;23.80;;;;;;;9.87;100.00;100634.88;5037420;28;20379;-73
2024/03/14 04:44:25;;;;;;;47.00;24.10;;;;;;;9.88;100.00;100636.53;5027923;28;20025;-73
2024/03/14 04:46:54;;;;;;;46.40;24.17;;;;;;;9.90;100.00;100630.06;5042201;28;20044;-72
2024/03/14 04:49:23;;;;;;;49.80;22.05;;;;;;;9.90;100.00;100629.19;5037994;28;20549;-71
2024/03/14 04:51:48;;;;;;;43.33;22.15;;;;;;;9.99;100.00;100638.91;5045506;28;20788;-72
2024/03/14 04:54:16;;;;;;;50.67;23.00;;;;;;;9.90;100.00;100621.19;5035125;28;20021;-74
2024/03/14 04:56:42;;;;;;;44.85;22.25;;;;;;;9.97;100.00;100619.56;5035222;28;20127;-71
2024/03/14 04:59:12;;;;;;;45.27;22.63;;;;;;;9.96;100.00;100617.91;5036699;28;20100;-71
2024/03/14 05:01:38;;;;;;;54.03;24.55;;;;;;;9.87;100.00;100619.69;5027191;28;20116;-71
2024/03/14 05:04:04;;;;;;;47.42;22.17;;;;;;;9.95;100.00;100621.56;5028506;28;20124;-74
2024/03/14 05:06:29;;;;;;;43.50;21.33;;;;;;;9.86;100.00;100615.38;5027297;28;20037;-72
2024/03/14 05:08:54;;;;;;;45.77;23.37;;;;;;;9.90;100.00;100622.06;5036203;28;20725;-72
2024/03/14 05:11:21;;;;;;;44.67;22.75;;;;;;;9.90;100.00;100618.53;5035326;28;20260;-72
2024/03/14 05:13:56;;;;;;;42.58;21.52;;;;;;;9.82;100.00;100622.00;5027943;28;20037;-72
2024/03/14 05:16:22;;;;;;;41.05;21.60;;;;;;;9.84;100.00;100621.88;5021205;28;20029;-74
2024/03/14 05:18:48;;;;;;;42.95;21.42;;;;;;;9.91;100.00;100625.56;5027702;28;20057;-72
2024/03/14 05:21:15;;;;;;;40.75;20.50;;;;;;;9.83;100.00;100615.69;5042310;28;20922;-71
2024/03/14 05:23:41;;;;;;;41.88;20.67;;;;;;;9.91;100.00;100618.38;5034178;28;20056;-72
2024/03/14 05:26:07;;;;;;;44.83;22.38;;;;;;;9.74;100.00;100614.00;5044985;28;20025;-71
2024/03/14 05:28:33;;;;;;;44.90;24.85;;;;;;;9.81;100.00;100636.34;5039027;28;20084;-72
2024/03/14 05:30:59;;;;;;;42.42;20.95;;;;;;;9.86;100.00;100634.03;5028416;28;20025;-74
2024/03/14 05:33:24;;;;;;;37.23;20.83;;;;;;;9.93;100.00;100642.22;5033584;28;20044;-72
2024/03/14 05:35:50;;;;;;;42.50;21.80;;;;;;;9.80;100.00;100621.34;5040606;28;20325;-71
2024/03/14 05:38:15;;;;;;;44.65;22.25;;;;;;;9.92;100.00;100627.22;5044751;28;20654;-71
2024/03/14 05:40:40;;;;;;;44.17;21.27;;;;;;;9.84;100.00;100619.19;5030174;28;20033;-72
2024/03/14 05:43:06;;;;;;;40.80;22.87;;;;;;;9.73;100.00;100614.97;5030051;28;20041;-72
2024/03/14 05:45:35;;;;;;;40.20;20.13;;;;;;;9.83;100.00;100614.84;5043582;28;20032;-72
2024/03/14 05:48:11;;;;;;;47.80;22.67;;;;;;;9.91;100.00;100620.22;5036042;28;20546;-75
2024/03/14 05:50:37;;;;;;;40.33;21.77;;;;;;;9.94;100.00;100610.06;5026561;28;20107;-72
2024/03/14 05:53:03;;;;;;;42.20;21.40;;;;;;;9.85;100.00;100600.34;5026900;28;20029;-72
2024/03/14 05:55:29;;;;;;;38.47;21.05;;;;;;;9.79;100.00;100593.00;5025054;28;20376;-73
2024/03/14 05:57:55;;;;;;;36.97;18.90;;;;;;;9.71;100.00;100588.47;5041736;28;20051;-71
2024/03/14 06:00:21;;;;;;;41.83;21.35;;;;;;;9.75;100.00;100614.81;5040149;28;20497;-71
2024/03/14 06:02:47;;;;;;;34.87;19.07;;;;;;;9.71;100.00;100599.13;5039781;28;20027;-72
2024/03/14 06:05:14;;;;;;;41.10;21.85;;;;;;;9.71;100.00;100604.47;5031811;28;20029;-72
2024/03/14 06:07:40;;;;;;;39.72;19.33;;;;;;;9.72;100.00;100621.31;5024647;28;20017;-72
2024/03/14 06:10:07;;;;;;;44.35;21.00;;;;;;;9.81;100.00;100624.81;5034461;28;20048;-71
2024/03/14 06:12:32;;;;;;;;;;;;;;;9.85;100.00;100635.00;5043692;28;20040;-71
2024/03/14 06:14:58;;;;;;;39.20;19.15;;;;;;;9.73;100.00;100625.63;5043168;28;20667;-71
2024/03/14 06:17:25;;;;;;;40.55;18.63;;;;;;;9.78;100.00;100630.50;5043265;28;20107;-74
2024/03/14 06:19:50;;;;;;;38.92;21.60;;;;;;;9.72;100.00;100622.16;5035223;28;20041;-71
2024/03/14 06:22:16;;;;;;;39.53;20.02;;;;;;;9.78;100.00;100625.16;5033714;28;20024;-71
2024/03/14 06:24:43;;;;;;;34.42;18.00;;;;;;;9.67;100.00;100616.47;5025624;28;20034;-72
2024/03/14 06:27:12;;;;;;;34.13;18.80;;;;;;;9.77;100.00;100628.84;5033733;28;20131;-73
2024/03/14 06:29:38;;;;;;;37.83;18.80;;;;;;;9.81;100.00;100636.34;5025386;28;20091;-71
2024/03/14 06:32:04;;;;;;;40.25;20.38;;;;;;;9.91;100.00;100625.56;5026152;28;20037;-73
2024/03/14 06:34:33;;;;;;;42.55;19.52;;;;;;;9.83;100.00;100601.50;5020099;28;219995;-72
2024/03/14 06:36:59;;;;;;;33.90;20.20;;;;;;;9.89;100.00;100614.22;5026617;28;20025;-72
2024/03/14 06:39:26;;;;;;;38.30;19.23;;;;;;;9.90;100.00;100613.19;5039736;28;20121;-71
2024/03/14 06:41:54;;;;;;;33.10;17.98;;;;;;;9.97;100.00;100614.22;5022698;28;20036;-72
2024/03/14 06:44:22;;;;;;;27.50;16.40;;;;;;;9.93;100.00;100607.56;5014997;28;20488;-72
2024/03/14 06:46:48;;;;;;;31.42;17.40;;;;;;;10.02;100.00;100608.41;5002202;28;20109;-72
2024/03/14 06:49:13;;;;;;;35.25;18.77;;;;;;;10.03;100.00;100604.75;5024412;28;20047;-73
2024/03/14 06:51:41;;;;;;;34.47;19.13;;;;;;;10.08;100.00;100605.94;5023875;28;20037;-72
2024/03/14 06:54:07;;;;;;;33.90;18.63;;;;;;;10.02;100.00;100603.06;5025726;28;20048;-71
2024/03/14 06:56:35;;;;;;;31.77;18.05;;;;;;;10.09;100.00;100604.94;5025632;28;20025;-71
2024/03/14 06:59:07;;;;;;;36.17;18.00;;;;;;;10.13;100.00;100603.59;5024147;28;20173;-71
2024/03/14 07:01:34;;;;;;;34.03;18.70;;;;;;;10.19;100.00;100603.97;5025661;28;20036;-71
2024/03/14 07:03:59;;;;;;;30.13;17.70;;;;;;;10.10;100.00;100598.59;5032952;28;20098;-72
2024/03/14 07:06:26;;;;;;;35.90;18.35;;;;;;;10.15;100.00;100598.94;5033522;28;20598;-71
2024/03/14 07:08:57;;;;;;;37.20;20.50;;;;;;;10.13;100.00;100600.94;5025780;28;20017;-72
2024/03/14 07:11:25;;;;;;;31.77;18.95;;;;;;;10.04;100.00;100604.56;5037281;28;20029;-72
2024/03/14 07:13:54;;;;;;;31.13;17.98;;;;;;;10.04;100.00;100593.91;5028267;28;20026;-72
2024/03/14 07:16:22;;;;;;;35.53;19.90;;;;;;;9.98;100.00;100633.75;5018501;28;20030;-71
2024/03/14 07:18:55;;;;;;;38.22;19.75;;;;;;;10.08;100.00;100642.44;5023960;28;20037;-72
2024/03/14 07:21:22;;;;;;;35.67;19.27;;;;;;;10.00;100.00;100639.75;5018377;28;20666;-72
2024/03/14 07:23:48;;;;;;;37.40;20.10;;;;;;;10.09;100.00;100646.78;5024558;28;20485;-71
2024/03/14 07:26:32;;;;;;;34.10;19.50;;;;;;;10.09;100.00;100660.09;5026657;28;20044;-74
2024/03/14 07:28:58;;;;;;;31.48;19.02;;;;;;;9.98;100.00;100663.09;5020619;28;20044;-71
2024/03/14 07:31:28;;;;;;;;;;;;;;;9.94;100.00;100687.38;5025973;28;20165;-74
2024/03/14 07:33:53;;;;;;;35.38;18.75;;;;;;;9.91;100.00;100697.56;5011006;28;19932;-74
2024/03/14 07:36:19;;;;;;;30.70;17.42;;;;;;;9.93;100.00;100703.56;5018177;28;20037;-72
2024/03/14 07:38:47;;;;;;;36.87;18.60;;;;;;;9.97;100.00;100715.56;5007752;28;20045;-71
2024/03/14 07:41:22;;;;;;;32.83;18.33;;;;;;;9.94;100.00;100699.91;5028818;28;20279;-72
2024/03/14 07:43:48;;;;;;;32.97;18.42;;;;;;;10.05;100.00;100725.47;5028558;28;20061;-71
2024/03/14 07:46:13;;;;;;;38.83;19.73;;;;;;;9.94;100.00;100722.06;5036948;28;20116;-74
2024/03/14 07:48:41;;;;;;;41.35;20.95;;;;;;;10.01;100.00;100729.44;5042542;28;20069;-71
2024/03/14 07:51:07;;;;;;;37.95;19.42;;;;;;;10.03;100.00;100720.28;5038195;28;20059;-71
2024/03/14 07:53:33;;;;;;;36.63;20.90;;;;;;;10.02;100.00;100734.63;5027518;28;20048;-71
2024/03/14 07:55:59;;;;;;;;;;;;;;;10.22;100.00;100739.72;5029144;28;20072;-73
2024/03/14 07:58:24;;;;;;;38.83;21.50;;;;;;;10.15;100.00;100732.34;5027965;28;19979;-72
2024/03/14 08:00:51;;;;;;;35.37;20.67;;;;;;;10.10;100.00;100713.31;5028494;28;20041;-71
2024/03/14 08:03:16;;;;;;;36.85;19.50;;;;;;;10.37;100.00;100734.63;5023967;28;20041;-71
2024/03/14 08:05:42;;;;;;;34.88;19.30;;;;;;;10.46;100.00;100723.81;5031660;28;20400;-71
2024/03/14 08:08:07;;;;;;;31.73;18.38;;;;;;;10.53;100.00;100721.31;5027825;28;20033;-71
2024/03/14 08:10:33;;;;;;;36.33;19.17;;;;;;;10.31;100.00;100685.41;5030113;28;20837;-73
2024/03/14 08:12:58;;;;;;;34.13;18.65;;;;;;;10.63;100.00;100713.16;5028093;28;20033;-75
2024/03/14 08:16:08;;;;;;;34.43;19.20;;;;;;;10.72;100.00;100693.50;5026725;28;20481;-73
2024/03/14 08:18:15;;;;;;;35.88;19.58;;;;;;;10.75;100.00;100672.66;5023475;28;20045;-71
2024/03/14 08:20:41;;;;;;;29.40;17.20;;;;;;;10.60;100.00;100646.75;5027863;28;20041;-72
2024/03/14 08:23:06;;;;;;;32.40;17.65;;;;;;;10.95;100.00;100667.81;5029570;28;20091;-71
2024/03/14 08:25:37;;;;;;;37.53;19.23;;;;;;;10.74;100.00;100633.56;5032973;28;20083;-72
2024/03/14 08:28:04;;;;;;;34.88;19.77;;;;;;;10.74;100.00;100630.09;5028731;28;20037;-71
2024/03/14 08:30:30;;;;;;;30.75;17.80;;;;;;;10.81;100.00;100628.41;5027804;28;20052;-73
2024/03/14 08:32:55;;;;;;;34.00;19.17;;;;;;;10.86;100.00;100625.25;5027244;28;20404;-71
2024/03/14 08:35:20;;;;;;;31.53;18.53;;;;;;;11.00;100.00;100611.22;5035704;28;20120;-71
2024/03/14 08:37:46;;;;;;;31.37;18.83;;;;;;;10.93;100.00;100594.19;5033482;28;20283;-72
2024/03/14 08:40:12;;;;;;;28.90;17.15;;;;;;;10.90;100.00;100589.19;5036111;28;20044;-71
2024/03/14 08:42:38;;;;;;;30.30;16.90;;;;;;;11.01;100.00;100580.00;5027215;28;20079;-71
2024/03/14 08:45:04;;;;;;;28.20;16.65;;;;;;;11.11;100.00;100562.78;5027318;28;20492;-73
2024/03/14 08:47:30;;;;;;;;;;;;;;;11.28;100.00;100550.19;5027630;28;20029;-71
2024/03/14 08:49:57;;;;;;;29.60;17.67;;;;;;;11.08;100.00;100532.91;5009348;28;20379;-72
2024/03/14 08:52:26;;;;;;;;;;;;;;;11.53;100.00;100548.28;5039736;28;20076;-71
2024/03/14 08:54:55;;;;;;;27.80;16.38;;;;;;;11.52;100.00;100517.22;5038557;28;20007;-72
2024/03/14 08:57:25;;;;;;;25.85;16.13;;;;;;;12.17;100.00;100525.88;5021039;28;20518;-71
2024/03/14 08:59:51;;;;;;;29.42;16.85;;;;;;;12.06;100.00;100435.31;5027325;28;20072;-71
2024/03/14 09:02:22;;;;;;;27.45;15.43;;;;;;;12.64;100.00;100426.59;5026274;28;20073;-71
2024/03/14 09:04:48;;;;;;;24.98;14.15;;;;;;;12.72;100.00;100313.16;5042510;28;20033;-71
2024/03/14 09:07:17;;;;;;;27.73;14.90;;;;;;;12.31;100.00;100219.94;5038537;28;20911;-73
2024/03/14 09:09:44;;;;;;;25.08;13.60;;;;;;;12.72;100.00;100258.78;5042882;28;20040;-71
2024/03/14 09:12:25;;;;;;;22.25;14.80;;;;;;;12.55;100.00;100202.75;5045285;28;20051;-71
2024/03/14 09:14:51;;;;;;;22.83;14.93;;;;;;;12.53;100.00;100190.56;5046378;28;20036;-71
2024/03/14 09:17:17;;;;;;;23.67;13.50;;;;;;;11.87;100.00;100171.78;5034944;28;20040;-72
2024/03/14 09:19:44;;;;;;;29.30;15.75;;;;;;;11.76;100.00;100248.81;5039731;28;20040;-74
2024/03/14 09:22:09;;;;;;;24.25;15.25;;;;;;;12.33;100.00;100284.00;5046429;28;20035;-71
2024/03/14 09:24:35;;;;;;;21.33;12.77;;;;;;;12.29;100.00;100215.81;5045090;28;20045;-71
2024/03/14 09:27:04;;;;;;;22.70;13.38;;;;;;;12.60;100.00;100229.78;5037732;28;20033;-71
2024/03/14 09:29:30;;;;;;;21.90;14.35;;;;;;;12.31;100.00;100176.31;5039298;28;20017;-72
2024/03/14 09:31:57;;;;;;;23.95;14.27;;;;;;;12.17;100.00;100176.13;5044390;28;20033;-72
2024/03/14 09:36:55;;;;;;;29.08;15.55;;;;;;;12.39;100.00;100243.13;5042722;28;20049;-74
2024/03/14 09:39:21;;;;;;;22.55;14.13;;;;;;;12.60;100.00;100234.31;5035888;28;20033;-74
2024/03/14 09:41:48;;;;;;;22.85;14.63;;;;;;;12.21;100.00;100201.50;5044619;28;20036;-73
2024/03/14 09:44:23;;;;;;;21.92;14.18;;;;;;;12.14;100.00;100283.53;5036201;28;20088;-74
2024/03/14 09:46:54;;;;;;;22.38;14.27;;;;;;;12.09;100.00;100261.88;5039964;28;20095;-73
2024/03/14 09:49:20;;;;;;;24.05;14.40;;;;;;;12.33;100.00;100292.03;5040420;28;20033;-74
2024/03/14 09:51:47;;;;;;;22.80;14.88;;;;;;;12.15;100.00;100277.19;5031274;28;20021;-74
2024/03/14 09:54:16;;;;;;;19.58;13.70;;;;;;;12.88;100.00;100349.63;5035691;28;20036;-74
2024/03/14 09:56:41;;;;;;;21.08;13.40;;;;;;;13.26;100.00;100180.56;5037191;28;20029;-73
2024/03/14 09:59:07;;;;;;;21.10;13.80;;;;;;;13.05;100.00;100122.47;5026888;28;20563;-74
2024/03/14 10:01:34;;;;;;;21.23;12.95;;;;;;;13.25;100.00;100146.72;5024966;28;20509;-74
2024/03/14 10:04:00;;;;;;;20.50;13.23;;;;;;;13.34;100.00;100116.09;5031106;28;20122;-74
2024/03/14 10:06:25;;;;;;;22.70;14.53;;;;;;;13.08;100.00;100045.16;5049367;28;20132;-74
2024/03/14 10:08:51;;;;;;;19.60;13.53;;;;;;;13.12;100.00;100080.47;5033099;28;20023;-74
2024/03/14 10:11:18;;;;;;;24.15;14.55;;;;;;;12.95;100.00;100052.31;5041243;28;20167;-74
2024/03/14 10:13:47;;;;;;;19.75;13.15;;;;;;;13.23;100.00;100112.09;5020681;28;20559;-74
2024/03/14 10:16:14;;;;;;;19.92;12.40;;;;;;;13.52;100.00;100053.91;5040416;28;20048;-74
2024/03/14 10:18:41;;;;;;;23.33;12.68;;;;;;;13.48;100.00;99967.66;5037943;28;20065;-74
2024/03/14 10:21:07;;;;;;;23.02;13.55;;;;;;;13.16;100.00;99906.66;5030151;28;20553;-74
2024/03/14 10:23:33;;;;;;;20.00;13.15;;;;;;;13.31;100.00;99985.13;5038598;28;20554;-74
2024/03/14 10:25:58;;;;;;;15.85;11.70;;;;;;;13.30;100.00;99951.31;5018805;28;20106;-73
2024/03/14 10:28:33;;;;;;;20.63;11.88;;;;;;;13.35;100.00;100015.06;5035729;28;20479;-73
2024/03/14 10:31:02;;;;;;;18.50;12.20;;;;;;;13.78;100.00;99974.59;5035065;28;20049;-74
2024/03/14 10:33:28;;;;;;;19.90;11.23;;;;;;;14.17;100.00;99968.47;5032324;28;20033;-74
2024/03/14 10:35:58;;;;;;;16.02;12.02;;;;;;;14.29;100.00;99803.06;5031482;28;20044;-74
2024/03/14 10:38:26;;;;;;;15.77;11.07;;;;;;;14.43;100.00;99776.19;5028988;28;20533;-73
2024/03/14 10:41:02;;;;;;;13.93;10.40;;;;;;;14.56;100.00;99733.16;5040919;28;20033;-74
2024/03/14 10:43:36;;;;;;;12.63;9.98;;;;;;;14.75;100.00;99708.09;5033806;28;20037;-73
2024/03/14 10:46:08;;;;;;;14.20;10.20;;;;;;;15.08;100.00;99717.00;5041569;28;20025;-74
2024/03/14 10:48:38;;;;;;;16.35;10.95;;;;;;;14.45;100.00;99508.25;5035558;28;20040;-74
2024/03/14 10:51:04;;;;;;;14.27;9.18;;;;;;;14.85;100.00;99655.75;5043136;28;20045;-74
2024/03/14 10:53:30;;;;;;;11.70;8.80;;;;;;;15.80;100.00;99554.16;5019432;28;20506;-74
2024/03/14 10:55:58;;;;;;;17.58;10.73;;;;;;;16.41;100.00;99474.19;5043301;28;20041;-74
2024/03/14 10:58:26;;;;;;;11.23;9.40;;;;;;;15.73;100.00;99261.97;5026532;28;20033;-74
2024/03/14 11:00:53;;;;;;;12.38;8.75;;;;;;;15.50;100.00;99286.94;5045662;28;20033;-75
2024/03/14 11:03:19;;;;;;;13.35;8.45;;;;;;;15.68;100.00;99334.47;5041754;28;20040;-75
2024/03/14 11:05:50;;;;;;;14.57;9.00;;;;;;;16.42;100.00;99303.44;5033817;28;20037;-74
2024/03/14 11:08:17;;;;;;;15.45;9.23;;;;;;;17.08;100.00;99165.69;5029586;28;20550;-74
2024/03/14 11:10:46;;;;;;;11.98;7.55;;;;;;;16.91;100.00;98987.75;5040870;28;20083;-74
2024/03/14 11:13:25;;;;;;;13.38;8.32;;;;;;;17.20;100.00;99084.69;5038195;28;20037;-74
2024/03/14 11:15:54;;;;;;;10.82;7.18;;;;;;;17.93;100.00;98926.19;5039990;28;20045;-74